»·PEaware :: AAL1080 KPHX-KDEN

AAL1080 :: KPHX-KDEN

FLIGHT INFORMATION

Flight Status: Arrived
Operator:
American Airlines
More flights by this operator :: More flights under this callsign
Pilot: Alex S. (7186)
Aircraft: AIRBUS A321
(A321)
More flights by this aircraft type
Origin: KPHX Phoenix Sky Harbor Intl
United States
Destination: KDEN Denver Intl
United States
More flights between these airports :: More routes between these airports
Route: YOTES5 YOOPR OURAY PEEKK3
File this flight plan on PilotEdge
Remarks: virtualamerican.org
Altitude:
(Current/Filed)
33,000ft
Speed:
(Current/Filed)
465kts
Departed: 13-Jun-17 10:33 AM
Arrived: 13-Jun-17 11:51 AM
Distance/Time
Traveled:
522nm/1:17
Distance/Time
To Go:
Arrived

Flight Plot

Page will automatically refresh every two minutes.

Flight plan parsing failed; only flown route is shown


Map Options




Map Legend


Flown Route
Filed Route
Departure Airport
Arrival Airport
Navaid (VOR, NDB)
Fix

Horizontal Profiles

Position Reports

Time Latitude Longitude Heading Altitude Ground
Speed
13-Jun-17 10:17 33.437210 -112.001146 270 1149ft 0kts
13-Jun-17 10:18 33.437210 -112.001146 270 1149ft 0kts
13-Jun-17 10:19 33.437210 -112.001146 270 1149ft 0kts
13-Jun-17 10:20 33.437210 -112.001146 270 1149ft 0kts
13-Jun-17 10:21 33.437210 -112.001146 270 1149ft 0kts
13-Jun-17 10:22 33.437210 -112.001146 270 1149ft 0kts
13-Jun-17 10:23 33.437210 -112.001146 270 1149ft 0kts
13-Jun-17 10:24 33.437210 -112.001146 270 1149ft 0kts
13-Jun-17 10:25 33.437210 -112.001146 270 1149ft 0kts
13-Jun-17 10:26 33.437210 -112.001121 270 1149ft 1kts
13-Jun-17 10:27 33.436954 -112.000305 312 1149ft 1kts
13-Jun-17 10:28 33.436950 -112.000300 312 1149ft 0kts
13-Jun-17 10:29 33.437200 -112.000559 331 1149ft 6kts
13-Jun-17 10:30 33.437758 -112.000679 2 1149ft 0kts
13-Jun-17 10:31 33.439686 -112.000656 68 1149ft 10kts
13-Jun-17 10:32 33.439703 -111.994362 89 1149ft 22kts
13-Jun-17 10:33 33.439768 -111.992617 53 1149ft 0kts
13-Jun-17 10:34 33.440830 -111.992551 278 1149ft 7kts
13-Jun-17 10:35 33.440752 -112.021509 266 1256ft 157kts
13-Jun-17 10:36 33.436186 -112.072771 294 2501ft 160kts
13-Jun-17 10:37 33.474140 -112.117761 319 3402ft 245kts
13-Jun-17 10:38 33.533709 -112.169291 344 6842ft 279kts
13-Jun-17 10:39 33.612597 -112.165711 20 10425ft 301kts
13-Jun-17 10:40 33.682491 -112.085926 43 12499ft 376kts
13-Jun-17 10:41 33.756042 -111.991040 47 15758ft 402kts
13-Jun-17 10:42 33.826354 -111.880168 49 18700ft 424kts
13-Jun-17 10:43 33.899180 -111.764836 49 21216ft 442kts
13-Jun-17 10:44 33.974961 -111.645141 47 23374ft 458kts
13-Jun-17 10:45 34.070626 -111.548116 27 25124ft 463kts
13-Jun-17 10:46 34.180247 -111.463891 27 26838ft 473kts
13-Jun-17 10:47 34.292711 -111.377404 27 28209ft 485kts
13-Jun-17 10:48 34.407831 -111.288619 27 29380ft 496kts
13-Jun-17 10:49 34.525081 -111.197857 27 30635ft 501kts
13-Jun-17 10:50 34.643016 -111.107344 23 31783ft 503kts
13-Jun-17 10:51 34.765905 -111.026558 21 32979ft 502kts
13-Jun-17 10:52 34.889112 -110.946025 21 33170ft 501kts
13-Jun-17 10:53 35.011760 -110.865548 21 33163ft 501kts
13-Jun-17 10:54 35.134663 -110.784610 21 33160ft 501kts
13-Jun-17 10:55 35.257143 -110.703627 21 33164ft 501kts
13-Jun-17 10:56 35.380092 -110.622027 21 33168ft 501kts
13-Jun-17 10:57 35.502818 -110.540297 21 33175ft 504kts
13-Jun-17 10:58 35.624568 -110.457330 26 33168ft 509kts
13-Jun-17 10:59 35.728938 -110.335397 45 33168ft 524kts
13-Jun-17 11:00 35.824428 -110.199165 44 33172ft 525kts
13-Jun-17 11:01 35.920177 -110.063359 44 33178ft 525kts
13-Jun-17 11:02 36.015766 -109.927250 45 33183ft 525kts
13-Jun-17 11:03 36.111198 -109.790793 45 33187ft 525kts
13-Jun-17 11:04 36.205996 -109.654684 45 33190ft 524kts
13-Jun-17 11:05 36.301796 -109.516591 45 33192ft 523kts
13-Jun-17 11:06 36.396304 -109.379747 45 33195ft 523kts
13-Jun-17 11:07 36.490037 -109.243476 46 33192ft 521kts
13-Jun-17 11:08 36.584155 -109.106083 46 33184ft 522kts
13-Jun-17 11:09 36.678838 -108.967294 46 33180ft 523kts
13-Jun-17 11:10 36.772698 -108.829134 46 33165ft 523kts
13-Jun-17 11:11 36.866767 -108.690051 46 33151ft 523kts
13-Jun-17 11:12 36.960397 -108.551087 46 33148ft 524kts
13-Jun-17 11:13 37.053755 -108.411894 47 33148ft 522kts
13-Jun-17 11:14 37.146714 -108.272730 47 33151ft 521kts
13-Jun-17 11:15 37.239622 -108.133056 47 33163ft 520kts
13-Jun-17 11:16 37.331879 -107.993767 47 33172ft 519kts
13-Jun-17 11:17 37.424943 -107.852666 47 33190ft 524kts
13-Jun-17 11:18 37.518018 -107.710937 48 33198ft 523kts
13-Jun-17 11:19 37.610214 -107.569930 48 33209ft 524kts
13-Jun-17 11:20 37.703062 -107.427344 48 33213ft 525kts
13-Jun-17 11:21 37.795564 -107.284641 48 33210ft 529kts
13-Jun-17 11:22 37.868042 -107.172381 48 33252ft 532kts
13-Jun-17 11:23 37.962042 -107.026239 48 33262ft 536kts
13-Jun-17 11:24 38.054714 -106.881518 49 33235ft 531kts
13-Jun-17 11:25 38.149898 -106.732139 49 33230ft 536kts
13-Jun-17 11:26 38.243690 -106.585069 46 33230ft 539kts
13-Jun-17 11:27 38.350626 -106.450418 41 33292ft 540kts
13-Jun-17 11:28 38.458607 -106.317450 41 33393ft 540kts
13-Jun-17 11:29 38.566034 -106.183967 42 31118ft 533kts
13-Jun-17 11:30 38.668625 -106.055452 42 27495ft 501kts
13-Jun-17 11:31 38.762781 -105.937117 42 26173ft 463kts
13-Jun-17 11:32 38.853628 -105.822525 43 25403ft 454kts
13-Jun-17 11:33 38.942378 -105.709524 43 24698ft 446kts
13-Jun-17 11:34 39.029918 -105.597833 43 23995ft 439kts
13-Jun-17 11:35 39.115743 -105.488033 43 23253ft 432kts
13-Jun-17 11:36 39.199602 -105.380229 43 22473ft 426kts
13-Jun-17 11:37 39.282591 -105.279115 35 21433ft 401kts
13-Jun-17 11:38 39.369779 -105.194130 34 19169ft 383kts
13-Jun-17 11:39 39.453426 -105.113273 33 17329ft 372kts
13-Jun-17 11:40 39.533476 -105.035092 34 16546ft 359kts
13-Jun-17 11:41 39.612744 -104.957108 34 15918ft 355kts
13-Jun-17 11:42 39.690945 -104.879759 35 15329ft 351kts
13-Jun-17 11:43 39.779199 -104.840432 356 14026ft 338kts
13-Jun-17 11:44 39.870836 -104.839604 356 12771ft 326kts
13-Jun-17 11:45 39.954579 -104.838208 356 11716ft 276kts
13-Jun-17 11:46 40.027787 -104.838035 356 10533ft 254kts
13-Jun-17 11:47 40.091091 -104.816068 59 8949ft 245kts
13-Jun-17 11:48 40.091409 -104.738418 127 8045ft 210kts
13-Jun-17 11:49 40.049932 -104.691371 164 8008ft 185kts
13-Jun-17 11:50 39.999659 -104.685915 177 7420ft 177kts
13-Jun-17 11:51 39.949801 -104.686245 176 6482ft 179kts
13-Jun-17 11:52 39.900535 -104.686793 176 5541ft 176kts
13-Jun-17 11:53 39.877011 -104.686208 149 5445ft 23kts
13-Jun-17 11:54 39.874952 -104.684278 86 5445ft 11kts
13-Jun-17 11:55 39.870242 -104.683776 178 5445ft 23kts
13-Jun-17 11:56 39.863637 -104.683796 177 5445ft 23kts
13-Jun-17 11:57 39.857069 -104.683840 181 5445ft 23kts
13-Jun-17 11:58 39.855993 -104.679462 90 5445ft 23kts
13-Jun-17 11:59 39.855304 -104.674072 90 5445ft 12kts
13-Jun-17 12:00 39.854330 -104.670643 180 5445ft 0kts

Navigation Log

Ident Type
Flight plan parsing failed, navigation log unavailable